Time;durP1;ratioP1;P1;durP2;ratioP2;P2;SDS_P1;SDS_P2;PMS_P1;PMS_P2;Temp;Humidity;BMP_temperature;BMP_pressure;BME280_temperature;BME280_humidity;BME280_pressure;Samples;Min_cycle;Max_cycle;Signal;HPM_P1;HPM_P2
2024/03/02 00:00:20;;;;;;;3.78;2.22;;;8.20;99.90;;;;;;4425515;32;20065;-65
2024/03/02 00:02:49;;;;;;;3.80;2.10;;;8.10;99.90;;;;;;4425394;32;20081;-63
2024/03/02 00:05:18;;;;;;;4.43;2.28;;;8.10;99.90;;;;;;4424991;32;20069;-64
2024/03/02 00:07:48;;;;;;;3.87;2.28;;;8.20;99.90;;;;;;4426560;32;20090;-62
2024/03/02 00:10:19;;;;;;;4.28;1.98;;;8.20;99.90;;;;;;4428024;32;20499;-65
2024/03/02 00:12:47;;;;;;;1.80;1.62;;;8.20;99.90;;;;;;4427743;32;20064;-65
2024/03/02 00:15:43;;;;;;;2.28;1.75;;;8.10;99.90;;;;;;4426896;32;20077;-62
2024/03/02 00:18:12;;;;;;;4.32;2.75;;;8.20;99.90;;;;;;4417720;32;20068;-63
2024/03/02 00:20:38;;;;;;;4.00;2.37;;;8.20;99.90;;;;;;4425439;32;20097;-62
2024/03/02 00:23:05;;;;;;;41.22;3.37;;;8.20;99.90;;;;;;4427729;32;20429;-62
2024/03/02 00:25:41;;;;;;;1.00;0.80;;;8.20;99.90;;;;;;4416864;32;20511;-64
2024/03/02 00:28:26;;;;;;;1.25;1.15;;;8.20;99.90;;;;;;4413344;32;20081;-61
2024/03/02 00:30:56;;;;;;;5.25;1.67;;;8.30;99.90;;;;;;4416170;32;20084;-64
2024/03/02 00:33:23;;;;;;;2.55;1.25;;;8.30;99.90;;;;;;4413224;32;20065;-64
2024/03/02 00:35:50;;;;;;;3.35;2.05;;;8.30;99.90;;;;;;4402071;32;20058;-65
2024/03/02 00:38:16;;;;;;;3.00;2.25;;;8.30;99.90;;;;;;4412471;32;20081;-65
2024/03/02 00:40:43;;;;;;;1.92;1.73;;;8.30;99.90;;;;;;4426026;32;20153;-65
2024/03/02 00:43:35;;;;;;;2.62;1.95;;;8.30;99.90;;;;;;4424543;32;20065;-65
2024/03/02 00:46:00;;;;;;;5.15;2.17;;;8.40;99.90;;;;;;4408826;32;20110;-65
2024/03/02 00:48:26;;;;;;;7.10;2.03;;;8.40;99.90;;;;;;4425023;32;20540;-66
2024/03/02 00:50:52;;;;;;;2.67;1.92;;;8.40;99.90;;;;;;4427603;32;20089;-65
2024/03/02 00:53:23;;;;;;;1.92;1.73;;;8.50;99.90;;;;;;4402006;32;20579;-65
2024/03/02 00:55:49;;;;;;;7.60;2.12;;;8.50;99.90;;;;;;4426179;32;20069;-65
2024/03/02 00:58:14;;;;;;;5.70;2.15;;;8.50;99.90;;;;;;4413206;32;20126;-64
2024/03/02 01:00:40;;;;;;;9.02;3.10;;;8.40;99.90;;;;;;4428552;32;20078;-64
2024/03/02 01:03:05;;;;;;;2.62;1.65;;;8.40;99.90;;;;;;4416828;32;20638;-65
2024/03/02 01:05:30;;;;;;;1.95;1.75;;;8.50;99.90;;;;;;4426184;32;20057;-64
2024/03/02 01:07:56;;;;;;;3.90;2.08;;;8.50;99.90;;;;;;4427411;32;20115;-65
2024/03/02 01:10:21;;;;;;;6.53;3.20;;;8.40;99.90;;;;;;4422045;32;20078;-66
2024/03/02 01:12:47;;;;;;;4.45;2.40;;;8.40;99.90;;;;;;4424283;32;20680;-66
2024/03/02 01:15:12;;;;;;;2.90;1.67;;;8.40;99.90;;;;;;4425700;32;20144;-65
2024/03/02 01:17:38;;;;;;;2.92;1.92;;;8.50;99.90;;;;;;4426948;32;20058;-64
2024/03/02 01:20:04;;;;;;;2.75;1.62;;;8.40;99.90;;;;;;4426124;32;20073;-65
2024/03/02 01:22:29;;;;;;;11.68;1.58;;;8.40;99.90;;;;;;4429051;32;20085;-66
2024/03/02 01:24:55;;;;;;;2.83;1.98;;;8.40;99.90;;;;;;4429147;32;20203;-66
2024/03/02 01:27:20;;;;;;;3.22;1.95;;;8.50;99.90;;;;;;4425577;32;20089;-66
2024/03/02 01:29:46;;;;;;;5.03;2.12;;;8.50;99.90;;;;;;4427749;32;20065;-66
2024/03/02 01:32:11;;;;;;;2.78;1.60;;;8.50;99.90;;;;;;4427176;32;20070;-66
2024/03/02 01:34:37;;;;;;;7.12;3.37;;;8.40;99.90;;;;;;4425564;32;20077;-66
2024/03/02 01:37:03;;;;;;;6.28;1.55;;;8.40;99.90;;;;;;4426143;32;20534;-66
2024/03/02 01:39:28;;;;;;;2.65;1.60;;;8.40;99.90;;;;;;4425647;32;20082;-66
2024/03/02 01:41:53;;;;;;;1.62;1.30;;;8.50;99.90;;;;;;4427696;32;20069;-65
2024/03/02 01:44:19;;;;;;;1.85;1.67;;;8.40;99.90;;;;;;4426226;32;20504;-65
2024/03/02 01:46:44;;;;;;;1.75;0.85;;;8.40;99.90;;;;;;4428829;32;20069;-65
2024/03/02 01:49:10;;;;;;;4.05;1.73;;;8.40;99.90;;;;;;4424662;32;20095;-68
2024/03/02 01:51:35;;;;;;;2.35;1.73;;;8.40;99.90;;;;;;4426258;32;20434;-66
2024/03/02 01:54:01;;;;;;;2.70;1.60;;;8.40;99.90;;;;;;4425132;32;20541;-66
2024/03/02 01:56:26;;;;;;;5.12;3.12;;;8.40;99.90;;;;;;4423523;32;20124;-65
2024/03/02 01:58:52;;;;;;;2.75;1.45;;;8.40;99.90;;;;;;4425187;32;20077;-65
2024/03/02 02:01:17;;;;;;;3.28;2.42;;;8.40;99.90;;;;;;4428064;32;20476;-66
2024/03/02 02:03:44;;;;;;;7.72;2.67;;;8.50;99.90;;;;;;4425070;32;20077;-65
2024/03/02 02:06:09;;;;;;;6.12;2.90;;;8.50;99.90;;;;;;4425920;32;20077;-65
2024/03/02 02:08:37;;;;;;;6.22;2.55;;;8.50;99.90;;;;;;4428182;32;20492;-65
2024/03/02 02:11:02;;;;;;;3.53;2.33;;;8.50;99.90;;;;;;4426070;32;20081;-65
2024/03/02 02:13:28;;;;;;;0.93;0.93;;;8.50;99.90;;;;;;4423156;32;20390;-66
2024/03/02 02:15:53;;;;;;;22.35;2.00;;;8.50;99.90;;;;;;4415195;32;20131;-66
2024/03/02 02:18:19;;;;;;;10.50;4.20;;;8.40;99.90;;;;;;4425359;32;20128;-65
2024/03/02 02:20:44;;;;;;;4.43;2.58;;;8.50;99.90;;;;;;4427519;32;20524;-65
2024/03/02 02:23:10;;;;;;;2.22;1.75;;;8.40;99.90;;;;;;4431011;32;20088;-66
2024/03/02 02:25:35;;;;;;;3.42;2.30;;;8.40;99.90;;;;;;4427791;32;20413;-64
2024/03/02 02:28:01;;;;;;;2.03;1.67;;;8.40;99.90;;;;;;4409673;32;20123;-66
2024/03/02 02:30:29;;;;;;;5.25;1.75;;;8.40;99.90;;;;;;4413440;32;20740;-65
2024/03/02 02:32:55;;;;;;;27.40;5.45;;;8.40;99.90;;;;;;4424191;32;20077;-66
2024/03/02 02:35:21;;;;;;;3.10;2.33;;;8.30;99.90;;;;;;4411623;32;20073;-65
2024/03/02 02:37:48;;;;;;;2.05;1.67;;;8.40;99.90;;;;;;4424494;32;20090;-66
2024/03/02 02:40:14;;;;;;;8.25;2.83;;;8.40;99.90;;;;;;4397963;32;20078;-65
2024/03/02 02:42:39;;;;;;;8.63;2.67;;;8.40;99.90;;;;;;4424632;32;20085;-66
2024/03/02 02:45:06;;;;;;;3.40;2.08;;;8.50;99.90;;;;;;4428109;32;20077;-66
2024/03/02 02:47:34;;;;;;;6.20;2.67;;;8.50;99.90;;;;;;4413995;32;20077;-65
2024/03/02 02:50:01;;;;;;;5.25;1.85;;;8.50;99.90;;;;;;4428984;32;20069;-65
2024/03/02 02:52:32;;;;;;;2.47;2.20;;;8.50;99.90;;;;;;4427273;32;20073;-62
2024/03/02 02:54:58;;;;;;;11.57;3.28;;;8.60;99.90;;;;;;4412730;32;20081;-62
2024/03/02 02:57:24;;;;;;;6.82;2.15;;;8.60;99.90;;;;;;4408997;32;20077;-61
2024/03/02 02:59:49;;;;;;;8.20;3.65;;;8.50;99.90;;;;;;4423636;32;20077;-63
2024/03/02 03:02:14;;;;;;;4.00;2.37;;;8.60;99.90;;;;;;4429237;32;20068;-62
2024/03/02 03:04:40;;;;;;;7.32;2.60;;;8.50;99.90;;;;;;4426528;32;20090;-62
2024/03/02 03:07:05;;;;;;;7.00;2.47;;;8.60;99.90;;;;;;4427468;32;20085;-63
2024/03/02 03:09:31;;;;;;;3.08;1.52;;;8.60;99.90;;;;;;4426113;32;20505;-63
2024/03/02 03:11:57;;;;;;;8.18;2.03;;;8.60;99.90;;;;;;4429791;32;20068;-62
2024/03/02 03:14:22;;;;;;;11.07;2.08;;;8.60;99.90;;;;;;4429103;32;20124;-62
2024/03/02 03:16:48;;;;;;;2.33;1.75;;;8.70;99.90;;;;;;4427374;32;20556;-62
2024/03/02 03:19:16;;;;;;;5.28;2.15;;;8.70;99.90;;;;;;4425371;32;20406;-63
2024/03/02 03:21:43;;;;;;;3.83;2.05;;;8.80;99.90;;;;;;4424243;32;20453;-62
2024/03/02 03:24:09;;;;;;;5.32;2.28;;;8.70;99.90;;;;;;4427612;32;20411;-62
2024/03/02 03:26:36;;;;;;;5.37;2.05;;;8.70;99.90;;;;;;4411202;32;20468;-62
2024/03/02 03:29:02;;;;;;;5.37;2.90;;;8.70;99.90;;;;;;4426659;32;20077;-62
2024/03/02 03:31:28;;;;;;;7.32;1.62;;;8.70;99.90;;;;;;4429080;32;20081;-62
2024/03/02 03:33:53;;;;;;;2.03;1.75;;;8.70;99.90;;;;;;4429475;32;20073;-62
2024/03/02 03:36:19;;;;;;;1.98;1.77;;;8.70;99.90;;;;;;4428353;32;20092;-62
2024/03/02 03:38:44;;;;;;;3.90;2.40;;;8.80;99.90;;;;;;4429018;32;20102;-62
2024/03/02 03:41:10;;;;;;;9.48;1.85;;;8.80;99.90;;;;;;4424765;32;20069;-64
2024/03/02 03:43:36;;;;;;;9.05;3.00;;;8.80;99.90;;;;;;4425130;32;20135;-64
2024/03/02 03:46:02;;;;;;;1.70;1.33;;;8.80;99.90;;;;;;4426864;32;20112;-62
2024/03/02 03:48:30;;;;;;;2.75;1.77;;;8.80;99.90;;;;;;4427482;32;20066;-62
2024/03/02 03:50:56;;;;;;;2.20;1.70;;;8.80;99.90;;;;;;4426168;32;20073;-63
2024/03/02 03:53:22;;;;;;;9.45;3.25;;;8.90;99.90;;;;;;4425410;32;20077;-62
2024/03/02 03:55:49;;;;;;;3.25;2.08;;;8.90;99.90;;;;;;4401583;32;20512;-63
2024/03/02 03:58:16;;;;;;;2.55;1.90;;;8.80;99.90;;;;;;4426317;32;20434;-63
2024/03/02 04:00:42;;;;;;;2.65;1.92;;;8.80;99.90;;;;;;4423372;32;20150;-65
2024/03/02 04:03:07;;;;;;;3.78;2.08;;;8.80;99.90;;;;;;4424696;32;20211;-64
2024/03/02 04:05:33;;;;;;;1.62;1.52;;;8.80;99.90;;;;;;4426733;32;20176;-65
2024/03/02 04:07:59;;;;;;;3.00;1.87;;;8.70;99.90;;;;;;4422882;32;20530;-65
2024/03/02 04:10:25;;;;;;;22.75;1.85;;;8.70;99.90;;;;;;4424591;32;20076;-65
2024/03/02 04:12:50;;;;;;;7.07;2.80;;;8.70;99.90;;;;;;4430419;32;21150;-65
2024/03/02 04:15:18;;;;;;;1.80;1.55;;;8.70;99.90;;;;;;4427473;32;20082;-64
2024/03/02 04:17:44;;;;;;;4.60;2.15;;;8.70;99.90;;;;;;4426862;32;20061;-65
2024/03/02 04:20:10;;;;;;;7.53;3.00;;;8.70;99.90;;;;;;4425800;32;20089;-64
2024/03/02 04:22:35;;;;;;;4.20;2.03;;;8.70;99.90;;;;;;4424867;32;20120;-65
2024/03/02 04:25:01;;;;;;;2.25;1.65;;;8.60;99.90;;;;;;4427768;32;20610;-66
2024/03/02 04:27:27;;;;;;;6.62;1.73;;;8.60;99.90;;;;;;4422514;32;20070;-65
2024/03/02 04:29:52;;;;;;;8.30;3.40;;;8.60;99.90;;;;;;4426701;32;20758;-65
2024/03/02 04:32:19;;;;;;;4.07;2.47;;;8.60;99.90;;;;;;4425600;32;20120;-65
2024/03/02 04:34:45;;;;;;;4.57;1.90;;;8.60;99.90;;;;;;4427881;32;20462;-65
2024/03/02 04:37:12;;;;;;;1.92;1.50;;;8.70;99.90;;;;;;4426679;32;20066;-66
2024/03/02 04:39:38;;;;;;;7.15;2.17;;;8.70;99.90;;;;;;4413184;32;20076;-66
2024/03/02 04:42:03;;;;;;;10.77;4.60;;;8.70;99.90;;;;;;4426076;32;20101;-65
2024/03/02 04:44:29;;;;;;;5.78;2.08;;;8.70;99.90;;;;;;4427972;32;20098;-65
2024/03/02 04:46:54;;;;;;;3.12;2.08;;;8.60;99.90;;;;;;4427433;32;20094;-65
2024/03/02 04:49:20;;;;;;;2.03;1.50;;;8.60;99.90;;;;;;4429356;32;20426;-65
2024/03/02 04:51:45;;;;;;;3.70;2.50;;;8.60;99.90;;;;;;4429690;32;20098;-65
2024/03/02 04:54:11;;;;;;;3.00;1.65;;;8.50;99.90;;;;;;4427875;32;20070;-65
2024/03/02 04:56:44;;;;;;;6.85;2.40;;;8.60;99.90;;;;;;4428286;32;20442;-65
2024/03/02 04:59:10;;;;;;;3.47;2.45;;;8.60;99.90;;;;;;4428505;32;20143;-65
2024/03/02 05:01:36;;;;;;;2.15;1.45;;;8.60;99.90;;;;;;4426891;32;20123;-65
2024/03/02 05:04:01;;;;;;;3.12;1.98;;;8.50;99.90;;;;;;4413061;32;20118;-65
2024/03/02 05:06:27;;;;;;;3.83;2.05;;;8.50;99.90;;;;;;4432596;32;20160;-65
2024/03/02 05:08:52;;;;;;;3.47;1.83;;;8.50;99.90;;;;;;4428995;32;20515;-65
2024/03/02 05:13:18;;;;;;;9.50;3.00;;;8.50;99.90;;;;;;4428892;32;20065;-62
2024/03/02 05:14:04;;;;;;;6.95;3.37;;;8.60;99.90;;;;;;4420646;32;20131;-62
2024/03/02 05:16:32;;;;;;;2.87;1.95;;;8.60;99.90;;;;;;4411295;32;20079;-62
2024/03/02 05:18:57;;;;;;;5.12;2.65;;;8.60;99.90;;;;;;4430525;32;20563;-62
2024/03/02 05:21:23;;;;;;;4.18;2.35;;;8.60;99.90;;;;;;4430291;32;20061;-62
2024/03/02 05:23:51;;;;;;;6.65;2.53;;;8.60;99.90;;;;;;4418551;32;20524;-62
2024/03/02 05:26:16;;;;;;;1.83;1.70;;;8.60;99.90;;;;;;4427959;32;20552;-62
2024/03/02 05:28:42;;;;;;;4.80;1.50;;;8.70;99.90;;;;;;4425672;32;20072;-62
2024/03/02 05:31:11;;;;;;;2.25;1.65;;;8.70;99.90;;;;;;4426947;32;20077;-62
2024/03/02 05:33:38;;;;;;;1.70;1.40;;;8.70;99.90;;;;;;4413130;32;20077;-62
2024/03/02 05:36:04;;;;;;;2.80;2.08;;;8.70;99.90;;;;;;4429143;32;20061;-62
2024/03/02 05:38:30;;;;;;;5.03;2.05;;;8.60;99.90;;;;;;4425660;32;20081;-62
2024/03/02 05:40:55;;;;;;;2.03;1.65;;;8.60;99.90;;;;;;4424975;32;20141;-62
2024/03/02 05:43:21;;;;;;;3.37;1.98;;;8.60;99.90;;;;;;4422840;32;20086;-62
2024/03/02 05:45:46;;;;;;;4.82;2.55;;;8.60;99.90;;;;;;4427557;32;20136;-61
2024/03/02 05:48:12;;;;;;;3.12;2.10;;;8.60;99.90;;;;;;4428540;32;20156;-62
2024/03/02 05:50:37;;;;;;;5.68;2.40;;;8.60;99.90;;;;;;4413073;32;20142;-61
2024/03/02 05:53:03;;;;;;;5.68;2.92;;;8.60;99.90;;;;;;4429690;32;20077;-61
2024/03/02 05:55:28;;;;;;;1.25;1.10;;;8.70;99.90;;;;;;4427748;32;20124;-61
2024/03/02 05:59:12;;;;;;;1.98;1.55;;;8.70;99.90;;;;;;4429397;32;20143;-62
2024/03/02 06:00:39;;;;;;;8.38;2.53;;;8.60;99.90;;;;;;4417472;32;20084;-61
2024/03/02 06:03:06;;;;;;;2.53;1.45;;;8.70;99.90;;;;;;4429912;32;20122;-62
2024/03/02 06:05:31;;;;;;;16.12;3.17;;;8.70;99.90;;;;;;4416138;32;20590;-61
2024/03/02 06:07:56;;;;;;;5.68;2.33;;;8.60;99.90;;;;;;4423551;32;20208;-62
2024/03/02 06:10:22;;;;;;;2.20;1.95;;;8.60;99.90;;;;;;4428903;32;20058;-61
2024/03/02 06:12:47;;;;;;;13.40;3.55;;;8.60;99.90;;;;;;4428449;32;20138;-61
2024/03/02 06:15:13;;;;;;;6.00;2.05;;;8.70;99.90;;;;;;4428607;32;20081;-62
2024/03/02 06:17:38;;;;;;;5.18;2.45;;;8.70;99.90;;;;;;4413455;32;20087;-63
2024/03/02 06:20:04;;;;;;;4.50;2.67;;;8.60;99.90;;;;;;4428785;32;20525;-62
2024/03/02 06:22:30;;;;;;;2.03;1.70;;;8.50;99.90;;;;;;4429479;32;20437;-62
2024/03/02 06:24:56;;;;;;;2.35;2.05;;;8.50;99.90;;;;;;4428870;32;20082;-62
2024/03/02 06:27:21;;;;;;;10.95;3.05;;;8.50;99.90;;;;;;4426759;32;20086;-62
2024/03/02 06:29:48;;;;;;;6.93;3.15;;;8.50;99.90;;;;;;4428042;32;20139;-63
2024/03/02 06:32:13;;;;;;;5.95;2.90;;;8.60;99.90;;;;;;4430237;32;20167;-61
2024/03/02 06:34:39;;;;;;;3.17;2.28;;;8.60;99.90;;;;;;4426698;32;20117;-61
2024/03/02 06:37:04;;;;;;;5.10;1.60;;;8.60;99.90;;;;;;4427381;32;21889;-61
2024/03/02 06:39:33;;;;;;;3.42;1.92;;;8.60;99.90;;;;;;4432394;32;20081;-62
2024/03/02 06:41:59;;;;;;;16.33;2.45;;;8.40;99.90;;;;;;4414462;32;20094;-61
2024/03/02 06:44:24;;;;;;;4.62;2.17;;;8.40;99.90;;;;;;4425143;32;20508;-61
2024/03/02 06:46:51;;;;;;;3.70;1.87;;;8.30;99.90;;;;;;4427784;32;20528;-61
2024/03/02 06:49:17;;;;;;;5.32;2.92;;;8.40;99.90;;;;;;4413103;32;20100;-61
2024/03/02 06:51:45;;;;;;;2.42;1.83;;;8.40;99.90;;;;;;4427274;32;20069;-61
2024/03/02 06:54:10;;;;;;;3.67;1.75;;;8.40;99.90;;;;;;4427641;32;20153;-60
2024/03/02 06:56:37;;;;;;;4.10;2.62;;;8.30;99.90;;;;;;4431729;32;20077;-62
2024/03/02 06:59:02;;;;;;;1.98;1.60;;;8.40;99.90;;;;;;4428977;32;20454;-62
2024/03/02 07:01:28;;;;;;;21.40;1.85;;;8.30;99.90;;;;;;4428977;32;20057;-62
2024/03/02 07:03:54;;;;;;;12.45;2.40;;;8.30;99.90;;;;;;4429156;32;20096;-61
2024/03/02 07:06:19;;;;;;;5.03;1.90;;;8.40;99.90;;;;;;4426570;32;20080;-61
2024/03/02 07:08:45;;;;;;;1.70;1.55;;;8.40;99.90;;;;;;4427882;32;20436;-61
2024/03/02 07:11:13;;;;;;;13.60;3.42;;;8.40;99.90;;;;;;4412927;32;20094;-64
2024/03/02 07:13:40;;;;;;;2.97;2.03;;;8.40;99.90;;;;;;4426914;32;20161;-60
2024/03/02 07:16:27;;;;;;;1.77;1.67;;;8.30;99.90;;;;;;4430350;32;20464;-62
2024/03/02 07:18:51;;;;;;;3.72;2.28;;;8.30;99.90;;;;;;4415228;32;20089;-61
2024/03/02 07:21:17;;;;;;;7.72;3.25;;;8.40;99.90;;;;;;4428558;32;20073;-61
2024/03/02 07:23:44;;;;;;;16.77;5.00;;;8.30;99.90;;;;;;4427021;32;20081;-60
2024/03/02 07:26:10;;;;;;;2.58;1.67;;;8.40;99.90;;;;;;4428409;32;20127;-61
2024/03/02 07:28:37;;;;;;;6.60;2.25;;;8.40;99.90;;;;;;4425521;32;20096;-60
2024/03/02 07:31:04;;;;;;;7.18;1.70;;;8.50;99.90;;;;;;4425375;32;20098;-65
2024/03/02 07:33:30;;;;;;;10.00;3.08;;;8.50;99.90;;;;;;4414755;32;20085;-66
2024/03/02 07:35:59;;;;;;;6.37;2.90;;;8.60;99.90;;;;;;4428217;32;20545;-65
2024/03/02 07:38:24;;;;;;;2.90;2.22;;;8.50;99.90;;;;;;4424783;32;20081;-65
2024/03/02 07:40:50;;;;;;;3.28;1.85;;;8.60;99.90;;;;;;4425761;32;20093;-65
2024/03/02 07:43:17;;;;;;;14.40;3.17;;;8.50;99.90;;;;;;4423840;32;20098;-69
2024/03/02 07:45:43;;;;;;;4.50;2.40;;;8.40;99.90;;;;;;4424975;32;20090;-65
2024/03/02 07:48:09;;;;;;;2.00;1.80;;;8.30;99.90;;;;;;4424486;32;20077;-65
2024/03/02 07:50:35;;;;;;;6.03;1.70;;;8.40;99.90;;;;;;4409999;32;20300;-65
2024/03/02 07:53:01;;;;;;;4.20;2.33;;;8.40;99.90;;;;;;4424648;32;20434;-64
2024/03/02 07:55:27;;;;;;;1.40;1.17;;;8.50;99.90;;;;;;4413536;32;20123;-64
2024/03/02 07:57:52;;;;;;;2.15;1.37;;;8.50;99.90;;;;;;4421111;32;20073;-63
2024/03/02 08:00:18;;;;;;;4.50;2.15;;;8.50;99.90;;;;;;4423740;32;20073;-64
2024/03/02 08:02:43;;;;;;;6.12;1.65;;;8.50;99.90;;;;;;4425448;32;20505;-64
2024/03/02 08:05:09;;;;;;;14.07;2.42;;;8.50;99.90;;;;;;4412486;32;20600;-65
2024/03/02 08:07:35;;;;;;;5.07;2.17;;;8.50;99.90;;;;;;4424876;32;20457;-66
2024/03/02 08:10:00;;;;;;;8.77;3.22;;;8.60;99.90;;;;;;4425225;32;20081;-63
2024/03/02 08:12:26;;;;;;;3.22;2.08;;;8.70;99.90;;;;;;4422831;32;20521;-63
2024/03/02 08:14:51;;;;;;;2.87;2.22;;;8.70;99.90;;;;;;4426370;32;20347;-64
2024/03/02 08:17:17;;;;;;;3.62;1.62;;;8.70;99.90;;;;;;4423793;32;20105;-63
2024/03/02 08:19:43;;;;;;;4.62;2.20;;;8.60;99.90;;;;;;4416012;32;20066;-65
2024/03/02 08:22:09;;;;;;;1.92;1.73;;;8.80;99.90;;;;;;4423281;32;20097;-64
2024/03/02 08:24:35;;;;;;;2.83;1.67;;;8.80;99.90;;;;;;4423989;32;20516;-64
2024/03/02 08:27:01;;;;;;;3.75;2.08;;;8.80;99.90;;;;;;4415197;32;20120;-64
2024/03/02 08:29:26;;;;;;;2.95;1.80;;;8.80;99.90;;;;;;4425299;32;20375;-64
2024/03/02 08:31:53;;;;;;;4.45;2.33;;;8.90;99.90;;;;;;4427711;32;20085;-64
2024/03/02 08:34:18;;;;;;;5.35;2.45;;;8.90;99.90;;;;;;4426209;32;20481;-64
2024/03/02 08:36:44;;;;;;;2.28;1.70;;;8.90;99.90;;;;;;4426714;32;20081;-64
2024/03/02 08:39:15;;;;;;;12.75;2.95;;;8.90;99.90;;;;;;4423283;32;20073;-64
2024/03/02 08:41:43;;;;;;;;;;;8.90;99.90;;;;;;4422625;32;20090;-65
2024/03/02 08:44:09;;;;;;;2.45;1.67;;;8.70;99.90;;;;;;4423381;32;19978;-64
2024/03/02 08:46:34;;;;;;;1.67;1.58;;;8.70;99.90;;;;;;4421125;32;20541;-63
2024/03/02 08:49:01;;;;;;;4.60;1.55;;;8.70;99.90;;;;;;4424326;32;20590;-65
2024/03/02 08:51:26;;;;;;;7.40;3.10;;;8.70;99.90;;;;;;4430936;32;20065;-64
2024/03/02 08:53:51;;;;;;;6.75;2.45;;;8.80;99.90;;;;;;4425674;32;20140;-63
2024/03/02 08:56:17;;;;;;;3.12;2.08;;;8.80;99.90;;;;;;4426657;32;20053;-64
2024/03/02 08:58:44;;;;;;;1.25;1.12;;;8.70;99.90;;;;;;4411569;32;20089;-64
2024/03/02 09:01:10;;;;;;;1.27;1.15;;;8.70;99.90;;;;;;4426096;32;20073;-65
2024/03/02 09:03:37;;;;;;;6.50;2.08;;;8.70;99.90;;;;;;4429357;32;20077;-64
2024/03/02 09:06:02;;;;;;;7.60;2.95;;;8.70;99.90;;;;;;4427836;32;20124;-65
2024/03/02 09:08:28;;;;;;;1.33;1.23;;;8.80;99.90;;;;;;4426886;32;20061;-64
2024/03/02 09:10:54;;;;;;;1.60;1.48;;;8.80;99.90;;;;;;4426155;32;20136;-63
2024/03/02 09:13:20;;;;;;;4.85;2.60;;;8.80;99.90;;;;;;4429701;32;20431;-63
2024/03/02 09:15:46;;;;;;;11.50;2.20;;;8.90;99.90;;;;;;4427257;32;20077;-64
2024/03/02 09:18:11;;;;;;;2.78;1.27;;;8.80;99.90;;;;;;4430099;32;20068;-64
2024/03/02 09:20:37;;;;;;;5.30;2.33;;;8.90;99.90;;;;;;4426697;32;20545;-64
2024/03/02 09:23:02;;;;;;;11.35;3.12;;;8.90;99.90;;;;;;4423170;32;20082;-63
2024/03/02 09:25:28;;;;;;;3.60;2.25;;;8.90;99.90;;;;;;4424856;32;20545;-64
2024/03/02 09:27:53;;;;;;;2.15;1.58;;;8.90;99.90;;;;;;4427402;32;20136;-63
2024/03/02 09:30:19;;;;;;;6.37;1.98;;;8.90;99.90;;;;;;4427934;32;20122;-65
2024/03/02 09:32:44;;;;;;;4.43;2.05;;;9.00;99.90;;;;;;4430898;32;20087;-64
2024/03/02 09:35:09;;;;;;;20.17;3.08;;;9.00;99.90;;;;;;4428438;32;20553;-64
2024/03/02 09:37:35;;;;;;;3.08;1.98;;;9.00;99.90;;;;;;4426777;32;20088;-64
2024/03/02 09:40:01;;;;;;;2.15;1.37;;;9.00;99.90;;;;;;4426315;32;20191;-64
2024/03/02 09:42:27;;;;;;;1.25;1.15;;;9.10;99.90;;;;;;4426434;32;20081;-64
2024/03/02 09:44:53;;;;;;;11.55;3.60;;;9.20;99.90;;;;;;4423019;32;20061;-64
2024/03/02 09:47:18;;;;;;;2.67;1.92;;;9.20;99.90;;;;;;4427818;32;20068;-64
2024/03/02 09:49:44;;;;;;;3.40;1.70;;;9.20;99.90;;;;;;4426027;32;20081;-64
2024/03/02 09:52:11;;;;;;;2.78;1.75;;;9.30;99.90;;;;;;4428951;32;20128;-61
2024/03/02 09:54:36;;;;;;;1.40;1.10;;;9.20;99.90;;;;;;4429827;32;20088;-60
2024/03/02 09:57:02;;;;;;;5.22;1.65;;;9.30;99.90;;;;;;4426747;32;20434;-63
2024/03/02 09:59:29;;;;;;;1.70;1.60;;;9.40;99.90;;;;;;4427542;32;20066;-61
2024/03/02 10:01:58;;;;;;;3.53;1.85;;;9.40;99.90;;;;;;4401615;32;20141;-61
2024/03/02 10:04:32;;;;;;;2.22;1.15;;;9.50;99.90;;;;;;4431972;32;20097;-63
2024/03/02 10:07:14;;;;;;;6.57;1.62;;;9.60;99.90;;;;;;4428889;32;20061;-60
2024/03/02 10:09:45;;;;;;;1.20;1.10;;;9.70;99.90;;;;;;4427525;32;20513;-62
2024/03/02 10:12:13;;;;;;;3.05;1.35;;;9.60;99.90;;;;;;4426602;32;20112;-62
2024/03/02 10:14:40;;;;;;;2.75;1.70;;;9.60;99.90;;;;;;4418130;32;20133;-62
2024/03/02 10:17:08;;;;;;;0.90;0.90;;;9.80;99.90;;;;;;4430138;32;20068;-62
2024/03/02 10:19:34;;;;;;;3.62;1.33;;;9.80;99.90;;;;;;4427343;32;20106;-61
2024/03/02 10:22:02;;;;;;;2.50;1.45;;;9.70;99.90;;;;;;4427976;32;20544;-61
2024/03/02 10:24:37;;;;;;;2.97;1.67;;;9.80;99.90;;;;;;4427795;32;20999;-61
2024/03/02 10:27:26;;;;;;;3.53;1.73;;;9.70;99.90;;;;;;4410628;32;20085;-62
2024/03/02 10:29:52;;;;;;;3.78;1.15;;;9.80;99.90;;;;;;4413434;32;20135;-62
2024/03/02 10:32:21;;;;;;;2.08;1.35;;;9.90;99.90;;;;;;4422153;32;20128;-61
2024/03/02 10:34:52;;;;;;;2.47;1.90;;;10.00;99.90;;;;;;4421319;32;20084;-62
2024/03/02 10:37:20;;;;;;;4.25;1.75;;;10.20;99.90;;;;;;4405448;32;20100;-61
2024/03/02 10:39:47;;;;;;;2.33;1.52;;;10.30;99.90;;;;;;4423460;32;20069;-62
2024/03/02 10:42:14;;;;;;;1.33;1.20;;;10.40;99.90;;;;;;4422135;32;20520;-61
2024/03/02 10:44:40;;;;;;;1.08;1.02;;;10.40;99.90;;;;;;4427053;32;20069;-63
2024/03/02 10:47:12;;;;;;;1.65;1.23;;;10.50;99.90;;;;;;4428087;32;20539;-62
2024/03/02 10:49:41;;;;;;;4.70;2.05;;;10.50;99.90;;;;;;4413037;32;20482;-63
2024/03/02 10:52:09;;;;;;;1.37;1.27;;;10.50;99.90;;;;;;4425928;32;20069;-63
2024/03/02 10:54:36;;;;;;;0.80;0.80;;;10.40;99.90;;;;;;4413339;32;20533;-63
2024/03/02 10:57:05;;;;;;;1.85;1.08;;;10.40;99.90;;;;;;4424938;32;20533;-62
2024/03/02 10:59:35;;;;;;;2.72;2.03;;;10.50;99.90;;;;;;4427187;32;20069;-63
2024/03/02 11:02:02;;;;;;;5.93;2.53;;;10.60;99.90;;;;;;4425853;32;20073;-64
2024/03/02 11:04:29;;;;;;;2.90;1.25;;;10.50;99.90;;;;;;4423408;32;20086;-64
2024/03/02 11:07:02;;;;;;;2.37;1.17;;;10.60;99.90;;;;;;4424053;32;20097;-65
2024/03/02 11:09:29;;;;;;;0.88;0.88;;;10.80;99.90;;;;;;4424654;32;20135;-63
2024/03/02 11:12:19;;;;;;;21.60;2.95;;;10.90;99.90;;;;;;4425531;32;20890;-65
2024/03/02 11:14:44;;;;;;;2.92;1.45;;;11.00;99.90;;;;;;4409862;32;20141;-65
2024/03/02 11:17:13;;;;;;;7.90;2.58;;;11.10;99.90;;;;;;4426092;32;20244;-63
2024/03/02 11:19:40;;;;;;;4.62;1.60;;;11.30;99.90;;;;;;4426608;32;20090;-63
2024/03/02 11:22:06;;;;;;;1.17;1.08;;;11.50;99.90;;;;;;4427139;32;20474;-64
2024/03/02 11:24:33;;;;;;;9.77;2.75;;;11.60;99.90;;;;;;4423418;32;20120;-65
2024/03/02 11:27:00;;;;;;;6.80;2.37;;;11.50;99.90;;;;;;4426426;32;20688;-64
2024/03/02 11:29:43;;;;;;;2.30;1.67;;;11.40;99.90;;;;;;4425685;32;20064;-64
2024/03/02 11:32:24;;;;;;;1.23;1.12;;;11.60;99.90;;;;;;4422941;32;20564;-64
2024/03/02 11:34:51;;;;;;;4.82;1.42;;;11.80;99.90;;;;;;4422072;32;20093;-63
2024/03/02 11:37:18;;;;;;;4.10;1.00;;;12.00;99.90;;;;;;4420797;32;20089;-64
2024/03/02 11:39:45;;;;;;;1.50;1.23;;;12.10;99.90;;;;;;4426506;32;20468;-66
2024/03/02 11:42:14;;;;;;;2.97;1.83;;;11.90;99.90;;;;;;4422931;32;20093;-64
2024/03/02 11:44:41;;;;;;;1.85;1.27;;;12.10;99.90;;;;;;4426139;32;20127;-64
2024/03/02 11:47:10;;;;;;;1.33;1.23;;;12.30;99.90;;;;;;4425108;32;20077;-64
2024/03/02 11:49:52;;;;;;;2.37;1.25;;;12.30;99.90;;;;;;4426427;32;20104;-64
2024/03/02 11:52:18;;;;;;;2.53;1.62;;;12.30;99.90;;;;;;4422830;32;95531;-64
2024/03/02 11:54:47;;;;;;;2.45;1.12;;;12.30;99.90;;;;;;4413431;32;20057;-64
2024/03/02 11:57:15;;;;;;;2.58;1.65;;;12.40;99.90;;;;;;4426310;32;20062;-64
2024/03/02 11:59:41;;;;;;;10.38;1.60;;;12.50;99.90;;;;;;4427500;32;20579;-64
2024/03/02 12:02:17;;;;;;;3.47;1.37;;;12.60;99.90;;;;;;4429185;32;20053;-64
2024/03/02 12:04:44;;;;;;;4.40;2.00;;;12.60;99.90;;;;;;4413484;32;21028;-63
2024/03/02 12:07:10;;;;;;;6.90;2.33;;;12.60;99.90;;;;;;4424784;32;20414;-64
2024/03/02 12:09:36;;;;;;;2.95;2.08;;;12.70;99.90;;;;;;4423996;32;20134;-64
2024/03/02 12:12:09;;;;;;;2.40;1.08;;;12.80;99.90;;;;;;4424616;32;20536;-61
2024/03/02 12:14:37;;;;;;;2.22;1.37;;;12.80;99.90;;;;;;4427836;32;20073;-61
2024/03/02 12:17:05;;;;;;;3.92;1.65;;;12.90;99.90;;;;;;4416343;32;20505;-60
2024/03/02 12:19:32;;;;;;;3.65;1.30;;;12.90;99.90;;;;;;4424930;32;21228;-63
2024/03/02 12:22:00;;;;;;;1.80;0.88;;;13.00;99.90;;;;;;4424822;32;20561;-62
2024/03/02 12:24:28;;;;;;;2.37;1.40;;;13.20;99.90;;;;;;4429507;32;20398;-61
2024/03/02 12:26:54;;;;;;;1.23;1.12;;;13.40;99.90;;;;;;4414744;32;20415;-62
2024/03/02 12:29:20;;;;;;;23.05;2.92;;;13.70;99.90;;;;;;4415673;32;20073;-61
2024/03/02 12:31:48;;;;;;;6.25;1.48;;;13.90;99.90;;;;;;4412880;32;20161;-61
2024/03/02 12:34:15;;;;;;;1.08;0.98;;;14.00;99.90;;;;;;4427224;32;20069;-62
2024/03/02 12:36:41;;;;;;;1.70;1.27;;;13.80;99.90;;;;;;4429224;32;20070;-62
2024/03/02 12:39:08;;;;;;;4.25;1.80;;;13.70;99.90;;;;;;4425380;32;20081;-62
2024/03/02 12:41:37;;;;;;;6.40;1.50;;;13.60;99.90;;;;;;4425328;32;20398;-62
2024/03/02 12:44:03;;;;;;;4.03;2.00;;;13.50;99.90;;;;;;4416871;32;20081;-62
2024/03/02 12:46:30;;;;;;;2.22;1.10;;;13.50;99.90;;;;;;4427339;32;20061;-61
2024/03/02 12:48:56;;;;;;;1.37;1.27;;;13.70;99.90;;;;;;4426900;32;20105;-63
2024/03/02 12:51:21;;;;;;;4.93;2.17;;;14.30;99.90;;;;;;4425734;32;20516;-62
2024/03/02 12:53:54;;;;;;;4.22;2.10;;;14.80;99.90;;;;;;4408111;32;20069;-61